Time;durP1;ratioP1;P1;durP2;ratioP2;P2;SDS_P1;SDS_P2;PMS_P1;PMS_P2;Temp;Humidity;BMP_temperature;BMP_pressure;BME280_temperature;BME280_humidity;BME280_pressure;Samples;Min_cycle;Max_cycle;Signal;HPM_P1;HPM_P2
2021/08/23 00:01:55;;;;;;;8.75;6.15;;;20.40;67.90;;;;;;5035498;28;20030;-58
2021/08/23 00:04:21;;;;;;;8.70;6.25;;;20.30;67.90;;;;;;5035287;28;20441;-58
2021/08/23 00:06:46;;;;;;;10.32;6.80;;;20.30;67.80;;;;;;5039079;28;20496;-57
2021/08/23 00:09:12;;;;;;;9.82;6.38;;;20.30;67.80;;;;;;5054480;28;20059;-57
2021/08/23 00:11:37;;;;;;;9.27;6.00;;;20.30;67.70;;;;;;5059542;28;20017;-58
2021/08/23 00:14:03;;;;;;;10.18;6.85;;;20.20;67.50;;;;;;5058286;28;20070;-58
2021/08/23 00:16:29;;;;;;;8.90;6.55;;;20.20;67.40;;;;;;5038982;28;20033;-57
2021/08/23 00:18:55;;;;;;;8.95;6.00;;;20.20;67.50;;;;;;5038405;28;20033;-56
2021/08/23 00:21:22;;;;;;;8.20;6.05;;;20.20;67.50;;;;;;5039767;28;20021;-58
2021/08/23 00:23:51;;;;;;;8.27;5.60;;;20.20;67.70;;;;;;5038914;28;20030;-58
2021/08/23 00:26:17;;;;;;;9.43;5.88;;;20.20;67.70;;;;;;5038231;28;20026;-58
2021/08/23 00:28:43;;;;;;;8.45;5.78;;;20.20;67.50;;;;;;5038101;28;20473;-56
2021/08/23 00:31:09;;;;;;;8.98;6.05;;;20.20;67.80;;;;;;5037887;28;20097;-57
2021/08/23 00:33:35;;;;;;;8.45;6.15;;;20.20;67.90;;;;;;5038370;28;20375;-58
2021/08/23 00:36:00;;;;;;;9.13;5.80;;;20.20;68.20;;;;;;5038016;28;20458;-58
2021/08/23 00:38:26;;;;;;;7.90;5.68;;;20.20;68.00;;;;;;5047131;28;20092;-58
2021/08/23 00:40:52;;;;;;;9.05;5.90;;;20.10;68.70;;;;;;5056934;28;20469;-58
2021/08/23 00:43:17;;;;;;;9.27;6.18;;;20.10;68.00;;;;;;5037598;28;20036;-57
2021/08/23 00:45:43;;;;;;;8.50;6.03;;;20.10;68.10;;;;;;5038023;28;20018;-58
2021/08/23 00:48:11;;;;;;;9.38;6.15;;;20.10;68.10;;;;;;5036829;28;20025;-57
2021/08/23 00:50:37;;;;;;;8.00;5.90;;;20.10;68.40;;;;;;5037645;28;20492;-58
2021/08/23 00:53:04;;;;;;;9.27;5.85;;;20.00;68.30;;;;;;5037314;28;20025;-57
2021/08/23 00:55:33;;;;;;;9.02;6.35;;;20.00;68.30;;;;;;5037466;28;20476;-58
2021/08/23 00:58:01;;;;;;;8.13;5.68;;;20.00;68.40;;;;;;5037684;28;20464;-58
2021/08/23 01:00:30;;;;;;;8.10;5.88;;;20.00;68.50;;;;;;5037238;28;20025;-56
2021/08/23 01:03:15;;;;;;;10.05;6.03;;;19.90;68.60;;;;;;5037373;28;20064;-57
2021/08/23 01:05:41;;;;;;;8.57;6.18;;;19.90;68.50;;;;;;5037264;28;20026;-55
2021/08/23 01:08:24;;;;;;;7.93;5.88;;;19.90;68.60;;;;;;5045492;28;20764;-56
2021/08/23 01:10:51;;;;;;;7.80;5.53;;;19.90;68.80;;;;;;5057515;28;20032;-57
2021/08/23 01:13:17;;;;;;;8.73;4.97;;;19.90;68.80;;;;;;5057379;28;20025;-58
2021/08/23 01:15:43;;;;;;;8.43;5.88;;;19.90;69.00;;;;;;5042487;28;20116;-57
2021/08/23 01:18:09;;;;;;;8.10;5.85;;;19.80;68.90;;;;;;5037063;28;20033;-58
2021/08/23 01:20:39;;;;;;;7.47;5.57;;;19.80;68.80;;;;;;5037406;28;20120;-58
2021/08/23 01:23:07;;;;;;;8.45;6.05;;;19.80;69.00;;;;;;5037249;28;20419;-58
2021/08/23 01:25:36;;;;;;;9.23;6.05;;;19.80;69.00;;;;;;5037151;28;20033;-58
2021/08/23 01:28:04;;;;;;;8.57;6.47;;;19.80;69.20;;;;;;5036923;28;20435;-58
2021/08/23 01:30:40;;;;;;;9.57;6.57;;;19.80;69.20;;;;;;5036567;28;20095;-58
2021/08/23 01:33:06;;;;;;;9.93;6.30;;;19.80;69.40;;;;;;5036590;28;20053;-58
2021/08/23 01:35:31;;;;;;;10.00;6.95;;;19.70;69.30;;;;;;5036525;28;20061;-58
2021/08/23 01:37:58;;;;;;;9.15;6.53;;;19.70;69.50;;;;;;5043899;28;20457;-58
2021/08/23 01:40:23;;;;;;;9.23;7.32;;;19.70;69.60;;;;;;5056086;28;20021;-57
2021/08/23 01:42:49;;;;;;;8.68;6.68;;;19.70;69.60;;;;;;5037050;28;20029;-57
2021/08/23 01:45:15;;;;;;;12.02;6.80;;;19.70;69.70;;;;;;5036076;28;20068;-57
2021/08/23 01:47:41;;;;;;;9.82;6.82;;;19.60;69.50;;;;;;5036132;28;20031;-58
2021/08/23 01:50:07;;;;;;;10.63;7.13;;;19.60;69.70;;;;;;5035886;28;20021;-57
2021/08/23 01:52:32;;;;;;;10.25;7.80;;;19.60;69.60;;;;;;5036128;28;20104;-57
2021/08/23 01:54:58;;;;;;;11.35;7.63;;;19.60;69.70;;;;;;5035694;28;20563;-58
2021/08/23 01:57:25;;;;;;;9.48;7.25;;;19.50;69.70;;;;;;5036080;28;20054;-57
2021/08/23 01:59:51;;;;;;;11.43;7.90;;;19.50;69.80;;;;;;5035756;28;20112;-58
2021/08/23 02:02:17;;;;;;;12.10;8.20;;;19.50;70.10;;;;;;5035945;28;20102;-58
2021/08/23 02:04:42;;;;;;;10.50;8.30;;;19.50;70.00;;;;;;5035883;28;20100;-58
2021/08/23 02:07:08;;;;;;;11.30;8.10;;;19.50;70.00;;;;;;5035463;28;20418;-57
2021/08/23 02:09:33;;;;;;;11.18;8.45;;;19.50;70.20;;;;;;5039214;28;20030;-58
2021/08/23 02:11:59;;;;;;;12.07;8.60;;;19.50;70.20;;;;;;5035764;28;20136;-58
2021/08/23 02:14:25;;;;;;;11.13;8.05;;;19.50;70.00;;;;;;5035676;28;20079;-57
2021/08/23 02:16:50;;;;;;;12.68;8.27;;;19.50;69.90;;;;;;5035333;28;20389;-57
2021/08/23 02:19:16;;;;;;;11.60;8.15;;;19.50;69.90;;;;;;5035080;28;20021;-57
2021/08/23 02:21:49;;;;;;;14.20;8.60;;;19.50;69.80;;;;;;5034798;28;20067;-57
2021/08/23 02:24:15;;;;;;;11.93;8.25;;;19.50;69.90;;;;;;5034868;28;20090;-57
2021/08/23 02:26:41;;;;;;;12.23;9.48;;;19.50;69.90;;;;;;5034948;28;20478;-57
2021/08/23 02:29:07;;;;;;;12.27;8.38;;;19.40;69.90;;;;;;5034445;28;20117;-57
2021/08/23 02:31:32;;;;;;;13.93;9.27;;;19.40;69.80;;;;;;5034836;28;20045;-57
2021/08/23 02:33:58;;;;;;;15.20;9.63;;;19.40;69.70;;;;;;5034766;28;20502;-58
2021/08/23 02:36:24;;;;;;;14.38;10.18;;;19.50;69.70;;;;;;5034712;28;20095;-58
2021/08/23 02:38:49;;;;;;;13.45;9.55;;;19.40;69.60;;;;;;5034989;28;20034;-58
2021/08/23 02:41:15;;;;;;;13.90;9.13;;;19.50;69.60;;;;;;5034524;28;20473;-58
2021/08/23 02:43:41;;;;;;;15.07;9.75;;;19.40;69.50;;;;;;5034662;28;20107;-58
2021/08/23 02:46:07;;;;;;;13.45;8.82;;;19.40;69.60;;;;;;5034449;28;20444;-58
2021/08/23 02:48:33;;;;;;;10.25;7.72;;;19.40;69.50;;;;;;5034734;28;20033;-58
2021/08/23 02:50:58;;;;;;;11.38;8.02;;;19.40;69.20;;;;;;5034304;28;20026;-58
2021/08/23 02:53:24;;;;;;;11.90;7.50;;;19.40;68.90;;;;;;5034452;28;20100;-58
2021/08/23 02:55:50;;;;;;;10.85;8.15;;;19.40;68.70;;;;;;5034556;28;20049;-58
2021/08/23 02:58:16;;;;;;;10.60;7.65;;;19.40;68.60;;;;;;5034209;28;20022;-58
2021/08/23 03:00:41;;;;;;;9.93;7.45;;;19.40;68.30;;;;;;5034475;28;20025;-57
2021/08/23 03:03:07;;;;;;;11.82;7.53;;;19.40;68.40;;;;;;5033961;28;20025;-58
2021/08/23 03:05:33;;;;;;;10.88;7.43;;;19.40;68.10;;;;;;5034471;28;20424;-58
2021/08/23 03:07:58;;;;;;;10.32;7.75;;;19.40;68.20;;;;;;5034220;28;20029;-58
2021/08/23 03:10:24;;;;;;;10.95;7.63;;;19.40;68.00;;;;;;5033906;28;20033;-56
2021/08/23 03:12:50;;;;;;;11.20;8.02;;;19.40;67.80;;;;;;5034055;28;20147;-58
2021/08/23 03:15:15;;;;;;;10.75;8.13;;;19.40;67.80;;;;;;5033898;28;20032;-58
2021/08/23 03:17:41;;;;;;;13.00;8.15;;;19.40;67.50;;;;;;5033947;28;20025;-58
2021/08/23 03:20:07;;;;;;;11.02;8.57;;;19.40;67.40;;;;;;5034301;28;20100;-58
2021/08/23 03:22:33;;;;;;;12.30;7.90;;;19.40;67.20;;;;;;5033659;28;20036;-58
2021/08/23 03:24:59;;;;;;;13.07;8.05;;;19.40;67.00;;;;;;5033871;28;20115;-58
2021/08/23 03:27:24;;;;;;;11.45;7.88;;;19.40;67.10;;;;;;5033683;28;20471;-56
2021/08/23 03:29:53;;;;;;;12.80;7.78;;;19.40;66.90;;;;;;5033659;28;20029;-57
2021/08/23 03:32:19;;;;;;;10.50;7.47;;;19.50;67.10;;;;;;5033666;28;20049;-57
2021/08/23 03:34:45;;;;;;;11.77;7.55;;;19.50;66.90;;;;;;5033972;28;20061;-58
2021/08/23 03:37:11;;;;;;;12.32;7.82;;;19.60;66.80;;;;;;5035349;28;20034;-58
2021/08/23 03:39:36;;;;;;;13.68;8.50;;;19.60;66.70;;;;;;5052856;28;20055;-55
2021/08/23 03:42:02;;;;;;;12.10;8.00;;;19.70;66.60;;;;;;5047555;28;20018;-58
2021/08/23 03:44:28;;;;;;;14.27;8.82;;;19.70;66.50;;;;;;5033349;28;20083;-58
2021/08/23 03:46:54;;;;;;;14.13;8.90;;;19.70;66.20;;;;;;5033779;28;20063;-58
2021/08/23 03:49:20;;;;;;;12.30;8.32;;;19.80;66.20;;;;;;5033446;28;20021;-57
2021/08/23 03:51:46;;;;;;;15.32;9.02;;;19.80;66.20;;;;;;5033642;28;20116;-56
2021/08/23 03:54:12;;;;;;;11.85;7.78;;;19.80;65.90;;;;;;5033272;28;20037;-58
2021/08/23 03:56:39;;;;;;;13.35;9.10;;;19.90;65.90;;;;;;5033214;28;20535;-57
2021/08/23 03:59:05;;;;;;;12.75;8.25;;;19.90;65.80;;;;;;5033671;28;20508;-57
2021/08/23 04:01:31;;;;;;;14.13;8.95;;;19.90;65.70;;;;;;5033015;28;20029;-58
2021/08/23 04:03:57;;;;;;;14.23;8.93;;;20.00;65.30;;;;;;5033506;28;20021;-58
2021/08/23 04:06:22;;;;;;;14.95;8.90;;;20.00;65.30;;;;;;5033498;28;20073;-58
2021/08/23 04:08:48;;;;;;;14.02;8.68;;;20.00;65.20;;;;;;5051061;28;20033;-58
2021/08/23 04:11:14;;;;;;;11.38;8.43;;;20.10;65.10;;;;;;5053353;28;20029;-58
2021/08/23 04:13:41;;;;;;;13.88;9.05;;;20.10;64.90;;;;;;5053612;28;20470;-58
2021/08/23 04:16:11;;;;;;;16.15;9.57;;;20.20;64.70;;;;;;5053397;28;20104;-58
2021/08/23 04:18:37;;;;;;;13.10;8.30;;;20.20;64.50;;;;;;5053484;28;20025;-58
2021/08/23 04:21:03;;;;;;;14.23;8.60;;;20.30;64.40;;;;;;5053291;28;20025;-58
2021/08/23 04:23:29;;;;;;;10.75;7.38;;;20.30;64.30;;;;;;5053454;28;20096;-58
2021/08/23 04:25:54;;;;;;;13.80;7.95;;;20.40;64.10;;;;;;5052919;28;20068;-58
2021/08/23 04:28:20;;;;;;;13.63;9.32;;;20.40;64.10;;;;;;5053574;28;20021;-58
2021/08/23 04:30:46;;;;;;;13.55;8.10;;;20.50;64.00;;;;;;5052956;28;20053;-58
2021/08/23 04:33:11;;;;;;;12.45;8.38;;;20.50;63.90;;;;;;5053368;28;20024;-54
2021/08/23 04:35:37;;;;;;;13.60;8.48;;;20.60;63.70;;;;;;5053301;28;20061;-57
2021/08/23 04:38:03;;;;;;;12.15;8.40;;;20.60;63.50;;;;;;5040844;28;20026;-57
2021/08/23 04:40:28;;;;;;;13.27;7.57;;;20.70;63.20;;;;;;5033536;28;20021;-57
2021/08/23 04:42:55;;;;;;;10.32;7.50;;;20.80;63.20;;;;;;5033675;28;20441;-57
2021/08/23 04:45:21;;;;;;;11.20;7.32;;;20.80;63.10;;;;;;5033774;28;20468;-58
2021/08/23 04:47:47;;;;;;;10.90;6.80;;;20.90;62.90;;;;;;5033945;28;20037;-57
2021/08/23 04:50:12;;;;;;;9.68;6.97;;;21.00;62.60;;;;;;5033784;28;20030;-58
2021/08/23 04:52:45;;;;;;;9.63;7.18;;;21.20;62.30;;;;;;5036959;28;20022;-58
2021/08/23 04:55:11;;;;;;;11.02;7.00;;;21.30;62.00;;;;;;5037372;28;20044;-58
2021/08/23 04:57:37;;;;;;;10.88;6.63;;;21.30;61.70;;;;;;5037418;28;20022;-57
2021/08/23 05:00:07;;;;;;;15.57;7.35;;;21.40;61.30;;;;;;5037656;28;20040;-58
2021/08/23 05:02:32;;;;;;;11.50;6.80;;;21.40;61.10;;;;;;5033923;28;20539;-57
2021/08/23 05:04:58;;;;;;;10.73;6.60;;;21.50;61.20;;;;;;5034878;28;20026;-58
2021/08/23 05:07:24;;;;;;;10.25;6.63;;;21.50;61.10;;;;;;5031457;28;20034;-58
2021/08/23 05:09:50;;;;;;;12.43;6.90;;;21.60;61.10;;;;;;5035771;28;20026;-57
2021/08/23 05:12:15;;;;;;;11.43;7.53;;;21.60;61.10;;;;;;5033552;28;20076;-58
2021/08/23 05:14:41;;;;;;;9.90;6.53;;;21.70;61.10;;;;;;5017902;28;20151;-58
2021/08/23 05:17:06;;;;;;;9.48;6.68;;;21.80;60.90;;;;;;5029626;28;20030;-58
2021/08/23 05:19:32;;;;;;;10.27;6.95;;;21.90;60.90;;;;;;5040598;28;20087;-58
2021/08/23 05:21:58;;;;;;;12.57;7.68;;;22.10;61.10;;;;;;5036747;28;20061;-58
2021/08/23 05:24:23;;;;;;;9.88;6.65;;;22.20;61.00;;;;;;5033797;28;20025;-58
2021/08/23 05:26:49;;;;;;;10.07;7.03;;;22.30;60.90;;;;;;5042776;28;20025;-58
2021/08/23 05:29:15;;;;;;;9.85;6.85;;;22.40;60.80;;;;;;5040309;28;20037;-58
2021/08/23 05:31:41;;;;;;;10.43;7.43;;;22.50;60.90;;;;;;5037891;28;20053;-58
2021/08/23 05:34:06;;;;;;;10.85;7.20;;;22.60;61.00;;;;;;5036894;28;20030;-58
2021/08/23 05:36:32;;;;;;;11.13;6.78;;;22.90;60.70;;;;;;5036623;28;20116;-58
2021/08/23 05:38:58;;;;;;;9.32;6.25;;;23.10;60.00;;;;;;5036389;28;20033;-57
2021/08/23 05:41:23;;;;;;;9.68;6.47;;;23.20;59.50;;;;;;5034305;28;20366;-58
2021/08/23 05:43:49;;;;;;;9.77;7.13;;;23.30;59.60;;;;;;5040737;28;20068;-58
2021/08/23 05:46:22;;;;;;;12.38;6.70;;;23.30;59.50;;;;;;5037986;28;20076;-58
2021/08/23 05:48:48;;;;;;;9.70;6.93;;;23.30;59.20;;;;;;5042925;28;20045;-58
2021/08/23 05:51:15;;;;;;;10.95;6.85;;;23.30;59.10;;;;;;5033489;28;20084;-58
2021/08/23 05:53:44;;;;;;;10.52;7.15;;;23.30;59.00;;;;;;5036991;28;20025;-56
2021/08/23 05:56:11;;;;;;;10.05;6.90;;;23.30;59.10;;;;;;5033573;28;20030;-57
2021/08/23 05:58:36;;;;;;;9.77;7.20;;;23.30;59.40;;;;;;5037385;28;20021;-57
2021/08/23 06:01:05;;;;;;;10.27;7.68;;;23.40;59.80;;;;;;5033642;28;20033;-58
2021/08/23 06:03:32;;;;;;;10.15;6.63;;;23.40;59.80;;;;;;5036236;28;20045;-58
2021/08/23 06:05:57;;;;;;;9.45;7.32;;;23.40;59.60;;;;;;5036894;28;20031;-58
2021/08/23 06:08:23;;;;;;;10.65;7.38;;;23.50;60.00;;;;;;5035437;28;20172;-58
2021/08/23 06:10:49;;;;;;;11.38;8.15;;;23.60;60.60;;;;;;5037205;28;20501;-58
2021/08/23 06:13:14;;;;;;;11.05;7.93;;;23.60;61.00;;;;;;5037608;28;20124;-58
2021/08/23 06:15:40;;;;;;;12.82;7.82;;;23.70;61.30;;;;;;5037196;28;20036;-57
2021/08/23 06:18:05;;;;;;;10.48;7.65;;;23.80;61.60;;;;;;5034936;28;20025;-58
2021/08/23 06:20:32;;;;;;;10.50;8.48;;;23.80;61.50;;;;;;5036516;28;20025;-58
2021/08/23 06:22:57;;;;;;;11.05;8.55;;;23.90;61.60;;;;;;5037442;28;20075;-58
2021/08/23 06:25:23;;;;;;;9.38;7.15;;;23.90;61.50;;;;;;5038061;28;20033;-57
2021/08/23 06:27:49;;;;;;;11.82;8.32;;;23.90;60.70;;;;;;5037905;28;20072;-58
2021/08/23 06:30:15;;;;;;;10.20;6.40;;;24.00;60.50;;;;;;5037019;28;20053;-58
2021/08/23 06:32:40;;;;;;;10.07;6.68;;;24.00;59.70;;;;;;5037023;28;20457;-57
2021/08/23 06:35:06;;;;;;;9.68;5.28;;;24.10;58.50;;;;;;5029850;28;20025;-58
2021/08/23 06:37:32;;;;;;;7.72;5.13;;;24.10;58.10;;;;;;5034243;28;20026;-58
2021/08/23 06:40:04;;;;;;;9.40;5.07;;;24.10;57.50;;;;;;5035962;28;20416;-58
2021/08/23 06:42:29;;;;;;;7.75;4.80;;;24.20;56.80;;;;;;5033029;28;20033;-58
2021/08/23 06:44:55;;;;;;;6.10;4.50;;;24.20;56.50;;;;;;5031348;28;20033;-57
2021/08/23 06:47:20;;;;;;;16.50;9.77;;;24.20;56.00;;;;;;5033862;28;20022;-57
2021/08/23 06:49:46;;;;;;;11.32;9.50;;;24.20;56.80;;;;;;5037270;28;20029;-58
2021/08/23 06:52:12;;;;;;;8.65;5.68;;;24.30;57.30;;;;;;5032480;28;20108;-58
2021/08/23 06:54:38;;;;;;;7.75;4.97;;;24.30;56.60;;;;;;5037410;28;20021;-58
2021/08/23 06:57:03;;;;;;;9.05;5.50;;;24.40;55.90;;;;;;5034228;28;20055;-58
2021/08/23 06:59:29;;;;;;;7.68;5.53;;;24.50;56.30;;;;;;5036620;28;20022;-58
2021/08/23 07:01:55;;;;;;;11.20;7.07;;;24.50;56.50;;;;;;5038607;28;20025;-58
2021/08/23 07:04:20;;;;;;;10.38;6.78;;;24.50;57.00;;;;;;5035096;28;20064;-58
2021/08/23 07:06:46;;;;;;;7.38;5.88;;;24.60;57.80;;;;;;5032657;28;20029;-58
2021/08/23 07:09:12;;;;;;;13.02;5.82;;;24.70;57.70;;;;;;5036880;28;20512;-57
2021/08/23 07:11:38;;;;;;;8.80;5.97;;;24.70;57.50;;;;;;5032166;28;20034;-58
2021/08/23 07:14:04;;;;;;;7.78;5.93;;;24.80;57.50;;;;;;5033065;28;20041;-58
2021/08/23 07:16:30;;;;;;;6.82;5.50;;;24.80;57.60;;;;;;5033286;28;20075;-58
2021/08/23 07:18:55;;;;;;;9.45;5.85;;;24.90;57.10;;;;;;5030953;28;20029;-58
2021/08/23 07:21:21;;;;;;;8.82;5.95;;;24.90;57.60;;;;;;5034050;28;20013;-59
2021/08/23 07:23:47;;;;;;;6.93;5.03;;;25.00;57.90;;;;;;5039323;28;20053;-57
2021/08/23 07:26:13;;;;;;;4.20;3.03;;;25.00;57.30;;;;;;5034545;28;20038;-58
2021/08/23 07:28:38;;;;;;;7.70;6.03;;;25.00;55.80;;;;;;5035062;28;20465;-58
2021/08/23 07:31:04;;;;;;;8.63;6.00;;;25.00;56.50;;;;;;5027935;28;20049;-57
2021/08/23 07:33:30;;;;;;;7.57;5.18;;;25.10;57.20;;;;;;5027746;28;20378;-58
2021/08/23 07:35:56;;;;;;;12.68;6.70;;;25.10;56.90;;;;;;5033291;28;20025;-58
2021/08/23 07:38:21;;;;;;;10.77;6.70;;;25.10;57.50;;;;;;5032008;28;20087;-58
2021/08/23 07:40:47;;;;;;;11.20;8.13;;;25.10;58.10;;;;;;5031509;28;20026;-58
2021/08/23 07:43:13;;;;;;;11.50;7.72;;;25.10;58.60;;;;;;5020858;28;20021;-57
2021/08/23 07:45:38;;;;;;;9.55;7.05;;;25.10;58.40;;;;;;5028299;28;20025;-56
2021/08/23 07:48:05;;;;;;;8.70;6.30;;;25.10;58.60;;;;;;5025653;28;20033;-58
2021/08/23 07:50:30;;;;;;;10.75;6.18;;;25.10;58.90;;;;;;5022853;28;20029;-57
2021/08/23 07:52:56;;;;;;;8.05;5.78;;;25.10;58.70;;;;;;5022307;28;20485;-58
2021/08/23 07:55:22;;;;;;;6.72;5.30;;;25.10;58.90;;;;;;5025353;28;20033;-58
2021/08/23 07:57:49;;;;;;;7.65;5.03;;;25.10;58.70;;;;;;5022616;28;20029;-58
2021/08/23 08:00:17;;;;;;;8.45;5.13;;;25.10;58.50;;;;;;5024689;28;20041;-58
2021/08/23 08:02:43;;;;;;;8.02;5.00;;;25.10;58.60;;;;;;5030701;28;20056;-58
2021/08/23 08:05:09;;;;;;;6.32;4.30;;;25.10;58.50;;;;;;5031730;28;20026;-58
2021/08/23 08:07:37;;;;;;;6.18;4.32;;;25.10;58.60;;;;;;5027220;28;20109;-58
2021/08/23 08:10:04;;;;;;;6.97;4.70;;;25.10;58.60;;;;;;5034626;28;20517;-58
2021/08/23 08:12:30;;;;;;;6.88;4.72;;;25.10;58.60;;;;;;5026693;28;20018;-58
2021/08/23 08:14:56;;;;;;;7.68;4.47;;;25.10;58.90;;;;;;5026813;28;20040;-58
2021/08/23 08:17:23;;;;;;;6.68;4.97;;;25.10;58.80;;;;;;5027442;28;20033;-58
2021/08/23 08:19:48;;;;;;;7.07;5.13;;;25.10;58.90;;;;;;5027493;28;20040;-58
2021/08/23 08:22:15;;;;;;;7.32;5.18;;;25.10;58.60;;;;;;5032995;28;20025;-58
2021/08/23 08:24:41;;;;;;;6.07;4.75;;;25.10;58.70;;;;;;5029308;28;20022;-58
2021/08/23 08:27:07;;;;;;;7.45;4.43;;;25.10;58.70;;;;;;5031880;28;20053;-58
2021/08/23 08:29:33;;;;;;;7.15;4.30;;;25.10;58.50;;;;;;5034648;28;20118;-58
2021/08/23 08:31:58;;;;;;;5.80;4.32;;;25.00;58.60;;;;;;5033430;28;20129;-58
2021/08/23 08:34:24;;;;;;;6.60;4.10;;;25.00;58.70;;;;;;5031262;28;20175;-58
2021/08/23 08:36:50;;;;;;;5.53;4.00;;;25.00;58.60;;;;;;5030549;28;20037;-58
2021/08/23 08:39:15;;;;;;;7.05;4.03;;;25.00;58.80;;;;;;5035306;28;20522;-58
2021/08/23 08:41:41;;;;;;;6.68;4.50;;;25.00;59.00;;;;;;5036818;28;20093;-58
2021/08/23 08:44:07;;;;;;;7.00;4.30;;;25.00;58.80;;;;;;5035529;28;20025;-58
2021/08/23 08:46:34;;;;;;;6.13;4.13;;;25.00;58.70;;;;;;5037737;28;20544;-57
2021/08/23 08:49:01;;;;;;;6.28;4.25;;;25.00;58.30;;;;;;5031596;28;20033;-55
2021/08/23 08:51:29;;;;;;;6.50;4.30;;;25.00;58.60;;;;;;5034880;28;20064;-58
2021/08/23 08:53:56;;;;;;;5.07;3.75;;;25.00;58.90;;;;;;5032295;28;20506;-58
2021/08/23 08:56:22;;;;;;;6.25;4.72;;;25.00;58.90;;;;;;5027290;28;20033;-58
2021/08/23 08:58:47;;;;;;;6.72;4.85;;;25.00;59.00;;;;;;5029551;28;20036;-58
2021/08/23 09:01:13;;;;;;;5.45;4.00;;;25.00;59.30;;;;;;5033493;28;20029;-58
2021/08/23 09:03:45;;;;;;;5.93;4.30;;;25.00;59.40;;;;;;5039198;28;20025;-58
2021/08/23 09:06:11;;;;;;;7.75;4.47;;;24.90;59.20;;;;;;5033099;28;20422;-58
2021/08/23 09:08:46;;;;;;;5.82;4.28;;;25.00;59.30;;;;;;5037927;28;20021;-58
2021/08/23 09:11:15;;;;;;;5.28;3.90;;;24.90;59.10;;;;;;5036149;28;20029;-57
2021/08/23 09:13:55;;;;;;;4.38;3.45;;;24.90;59.00;;;;;;5032758;28;20045;-57
2021/08/23 09:16:43;;;;;;;6.18;3.65;;;24.90;58.90;;;;;;5031018;28;20029;-58
2021/08/23 09:19:27;;;;;;;4.45;3.42;;;24.80;58.60;;;;;;5038763;28;20056;-58
2021/08/23 09:22:18;;;;;;;4.63;3.70;;;24.80;58.50;;;;;;5038137;28;20033;-58
2021/08/23 09:24:44;;;;;;;;;;;24.80;58.40;;;;;;5036202;28;20025;-58
2021/08/23 09:27:12;;;;;;;4.72;3.50;;;24.80;58.40;;;;;;5037276;28;19905;-58
2021/08/23 09:29:56;;;;;;;5.18;3.28;;;24.80;58.20;;;;;;5038074;28;20026;-58
2021/08/23 09:32:24;;;;;;;5.22;3.50;;;24.80;57.80;;;;;;5033566;28;20091;-57
2021/08/23 09:34:50;;;;;;;4.80;3.88;;;24.70;57.40;;;;;;5041348;28;22104;-58
2021/08/23 09:37:24;;;;;;;5.32;3.42;;;24.70;57.50;;;;;;5033985;28;20034;-58
2021/08/23 09:39:50;;;;;;;4.20;3.30;;;24.70;57.40;;;;;;5031483;28;20103;-58
2021/08/23 09:42:24;;;;;;;5.68;3.60;;;24.70;57.10;;;;;;5033932;28;20025;-58
2021/08/23 09:44:52;;;;;;;3.70;3.17;;;24.70;57.30;;;;;;5034769;28;20032;-56
2021/08/23 09:47:26;;;;;;;4.50;2.75;;;24.60;57.10;;;;;;5027572;28;20087;-57
2021/08/23 09:49:51;;;;;;;5.95;3.33;;;24.60;57.30;;;;;;5028356;28;20096;-58
2021/08/23 09:52:29;;;;;;;2.80;2.45;;;24.60;57.10;;;;;;5032177;28;20029;-57
2021/08/23 09:55:08;;;;;;;4.07;2.97;;;24.60;56.20;;;;;;5028247;28;20448;-57
2021/08/23 09:57:41;;;;;;;3.40;2.50;;;24.60;56.00;;;;;;5029257;28;20033;-58
2021/08/23 10:00:11;;;;;;;2.67;2.33;;;24.60;55.70;;;;;;5033668;28;20112;-58
2021/08/23 10:02:44;;;;;;;3.25;2.17;;;24.60;55.40;;;;;;5032230;28;20018;-58
2021/08/23 10:05:14;;;;;;;2.85;2.05;;;24.60;55.40;;;;;;5027611;28;20045;-58
2021/08/23 10:07:40;;;;;;;4.45;2.50;;;24.60;54.80;;;;;;5029026;28;20020;-57
2021/08/23 10:10:06;;;;;;;2.35;1.60;;;24.60;54.70;;;;;;5037711;28;20100;-58
2021/08/23 10:12:32;;;;;;;3.85;2.28;;;24.60;54.30;;;;;;5033675;28;20435;-58
2021/08/23 10:14:59;;;;;;;2.08;1.90;;;24.60;54.10;;;;;;5039751;28;20354;-57
2021/08/23 10:17:25;;;;;;;2.47;2.10;;;24.60;53.80;;;;;;5033525;28;20034;-57
2021/08/23 10:19:51;;;;;;;2.10;1.90;;;24.60;53.60;;;;;;5032118;28;20029;-58
2021/08/23 10:22:17;;;;;;;1.90;1.70;;;24.60;53.30;;;;;;5025011;28;20026;-58
2021/08/23 10:24:46;;;;;;;2.13;1.83;;;24.60;53.30;;;;;;5032051;28;20033;-58
2021/08/23 10:27:22;;;;;;;2.00;1.60;;;24.60;53.30;;;;;;5034340;28;20026;-58
2021/08/23 10:29:48;;;;;;;3.45;1.70;;;24.60;53.00;;;;;;5027383;28;20113;-58
2021/08/23 10:32:14;;;;;;;2.13;1.92;;;24.60;52.90;;;;;;5036308;28;20045;-56
2021/08/23 10:34:40;;;;;;;2.25;1.75;;;24.60;52.70;;;;;;5030537;28;20026;-58
2021/08/23 10:37:23;;;;;;;1.67;1.58;;;24.60;52.90;;;;;;5036618;28;20075;-57
2021/08/23 10:40:03;;;;;;;2.35;1.98;;;24.60;52.80;;;;;;5037300;28;20043;-57
2021/08/23 10:42:40;;;;;;;2.45;2.05;;;24.60;52.80;;;;;;5026870;28;20484;-57
2021/08/23 10:45:10;;;;;;;4.95;2.20;;;24.70;53.00;;;;;;5035251;28;20033;-58
2021/08/23 10:47:36;;;;;;;;;;;24.70;52.90;;;;;;5032125;28;20429;-58
2021/08/23 10:50:02;;;;;;;3.05;1.88;;;24.60;53.10;;;;;;5032344;28;19959;-56
2021/08/23 10:52:35;;;;;;;2.85;2.03;;;24.60;53.10;;;;;;5031378;28;20436;-58
2021/08/23 10:55:01;;;;;;;2.88;2.17;;;24.60;53.00;;;;;;5031603;28;20025;-58
2021/08/23 10:57:26;;;;;;;2.47;1.98;;;24.60;52.80;;;;;;5031119;28;20037;-58
2021/08/23 10:59:54;;;;;;;2.97;2.20;;;24.60;52.80;;;;;;5033885;28;20489;-58
2021/08/23 11:02:30;;;;;;;2.38;2.13;;;24.60;52.80;;;;;;5026733;28;20452;-58
2021/08/23 11:05:14;;;;;;;6.35;2.42;;;24.60;53.00;;;;;;5022095;28;20056;-58
2021/08/23 11:07:46;;;;;;;3.60;2.30;;;24.60;53.60;;;;;;5026616;28;20072;-58
2021/08/23 11:10:16;;;;;;;1.98;1.80;;;24.60;52.90;;;;;;5024777;28;20396;-58
2021/08/23 11:12:46;;;;;;;;;;;24.50;52.80;;;;;;5029721;28;20021;-58
2021/08/23 11:15:24;;;;;;;2.20;2.00;;;24.50;53.30;;;;;;5031007;28;19913;-58
2021/08/23 11:18:12;;;;;;;2.10;1.90;;;24.50;53.30;;;;;;5032144;28;20048;-57
2021/08/23 11:20:41;;;;;;;3.53;2.40;;;24.40;53.30;;;;;;5028241;28;20092;-58
2021/08/23 11:23:10;;;;;;;3.60;2.10;;;24.40;53.60;;;;;;5030026;28;20024;-58
2021/08/23 11:25:44;;;;;;;2.33;1.90;;;24.40;53.60;;;;;;5030524;28;20363;-58
2021/08/23 11:28:12;;;;;;;2.78;1.90;;;24.40;53.30;;;;;;5023169;28;20032;-58
2021/08/23 11:30:40;;;;;;;2.88;2.15;;;24.50;53.40;;;;;;5024063;28;20077;-57
2021/08/23 11:33:08;;;;;;;3.53;2.05;;;24.50;53.20;;;;;;5025681;28;20101;-58
2021/08/23 11:35:35;;;;;;;2.67;2.20;;;24.50;53.30;;;;;;5032721;28;20024;-58
2021/08/23 11:38:04;;;;;;;3.05;2.10;;;24.50;52.90;;;;;;5031262;28;20026;-58
2021/08/23 11:40:31;;;;;;;5.20;2.25;;;24.50;52.90;;;;;;5027657;28;20022;-58
2021/08/23 11:42:59;;;;;;;2.63;2.05;;;24.60;52.70;;;;;;5027283;28;20067;-58
2021/08/23 11:45:37;;;;;;;2.92;2.42;;;24.60;52.60;;;;;;5020010;28;20045;-58
2021/08/23 11:48:03;;;;;;;3.35;2.30;;;24.60;52.60;;;;;;5024625;28;20033;-58
2021/08/23 11:50:29;;;;;;;4.95;2.20;;;24.60;52.40;;;;;;5020394;28;20380;-58
2021/08/23 11:53:02;;;;;;;3.13;2.20;;;24.60;52.40;;;;;;5031005;28;20025;-58
2021/08/23 11:55:38;;;;;;;2.60;2.20;;;24.60;52.30;;;;;;5022766;28;20400;-58
2021/08/23 11:58:15;;;;;;;2.65;2.30;;;24.60;52.10;;;;;;5034344;28;20033;-58
2021/08/23 12:00:44;;;;;;;2.60;2.05;;;24.60;52.10;;;;;;5035599;28;20473;-58
2021/08/23 12:03:15;;;;;;;2.25;2.05;;;24.60;51.90;;;;;;5027752;28;20361;-57
2021/08/23 12:05:46;;;;;;;4.22;2.45;;;24.60;51.90;;;;;;5030111;28;20046;-58
2021/08/23 12:08:25;;;;;;;2.78;2.17;;;24.60;51.70;;;;;;5024191;28;20028;-59
2021/08/23 12:10:52;;;;;;;4.15;2.30;;;24.60;51.60;;;;;;5027751;28;20119;-58
2021/08/23 12:13:19;;;;;;;2.50;2.30;;;24.60;51.80;;;;;;5031457;28;20075;-59
2021/08/23 12:16:06;;;;;;;2.38;2.13;;;24.60;51.60;;;;;;5036534;28;20041;-57
2021/08/23 12:18:46;;;;;;;3.28;2.35;;;24.60;51.60;;;;;;5036526;28;20511;-58
2021/08/23 12:21:26;;;;;;;2.75;2.00;;;24.60;51.70;;;;;;5040654;28;20480;-56
2021/08/23 12:24:08;;;;;;;2.83;2.50;;;24.60;51.40;;;;;;5029745;28;20489;-58
2021/08/23 12:26:39;;;;;;;3.22;2.00;;;24.60;51.00;;;;;;5029373;28;20367;-58
2021/08/23 12:29:10;;;;;;;;;;;24.70;51.00;;;;;;5032262;28;20033;-58
2021/08/23 12:31:47;;;;;;;2.83;2.20;;;24.60;50.90;;;;;;5041086;28;20003;-58
2021/08/23 12:34:15;;;;;;;2.38;2.00;;;24.60;51.10;;;;;;5035711;28;20037;-57
2021/08/23 12:36:42;;;;;;;2.90;2.22;;;24.70;50.60;;;;;;5031243;28;20072;-58
2021/08/23 12:39:08;;;;;;;2.90;2.40;;;24.80;50.80;;;;;;5022472;28;20113;-58
2021/08/23 12:41:34;;;;;;;2.60;2.10;;;24.80;50.80;;;;;;5035100;28;20156;-58
2021/08/23 12:43:59;;;;;;;3.55;2.15;;;24.90;50.80;;;;;;5028940;28;20500;-58
2021/08/23 12:46:26;;;;;;;3.22;2.28;;;25.00;50.90;;;;;;5031033;28;20045;-58